Hobucken, North Carolina
Current Conditions -  °F | °C
As of 11:56 PM on Friday 28 Nov 2014 (Local Time) from KNBT Reporting Station
Clear Clear  
Wind Chill: 41°   Ceiling: Unl
Heat Index: 41°   Visibility: NA
Dew Point: 25°   Wind: 0mph
Humidity: 53%   Direction: NA
Pressure: 30.31"   Gusts: NA
Location:  35.25°N, 76.57°W
Report Text: KNBT 290456Z AUTO 00000KT CLR 05/M04 A3031 RMK AO2 SLP268 T00501039 400780033 PNO $
Loading
Personal Weather Stations






























Interactive Weather Map New forecast layout! Learn more

10-Day Weather Forecast

Advertisements
Track Severe Weather on mobile